Ashton, South Dakota
Current Conditions -  °F | °C
As of 9:53 PM on Tuesday 21 Oct 2014 (Local Time) from KABR Reporting Station
Clear Clear  
Wind Chill: 64°   Ceiling: Unl
Heat Index: 64°   Visibility: 10mi
Dew Point: 45°   Wind: 21mph
Humidity: 50%   Direction: 160°SSE
Pressure: 29.85"   Gusts: 29mph
Location:  44.99°N, 98.5°W
Report Text: KABR 220253Z AUTO 16018G25KT 10SM CLR 18/07 A2985 RMK AO2 SLP107 T01780072 51008
Loading
Personal Weather Stations






























Interactive Weather Map
Tropical Storm Tracking
New forecast layout! Learn more

10-Day Weather Forecast

Advertisements
Track Severe Weather on mobile